createdAt,value
2023-10-22T00:00:09.604Z,0.80
2023-10-22T00:02:39.669Z,0.65
2023-10-22T00:05:07.355Z,1.02
2023-10-22T00:07:34.920Z,0.80
2023-10-22T00:10:01.485Z,0.65
2023-10-22T00:12:28.503Z,0.70
2023-10-22T00:14:55.386Z,0.70
2023-10-22T00:17:21.937Z,0.75
2023-10-22T00:19:48.600Z,0.80
2023-10-22T00:22:15.524Z,0.90
2023-10-22T00:24:42.593Z,1.00
2023-10-22T00:27:09.361Z,0.90
2023-10-22T00:29:36.061Z,0.80
2023-10-22T00:32:02.952Z,0.80
2023-10-22T00:34:29.983Z,0.80
2023-10-22T00:36:56.700Z,0.80
2023-10-22T00:39:23.224Z,0.90
2023-10-22T00:41:49.749Z,0.80
2023-10-22T00:44:16.341Z,0.80
2023-10-22T00:46:46.093Z,0.73
2023-10-22T00:49:13.746Z,0.85
2023-10-22T00:51:40.450Z,0.90
2023-10-22T00:54:07.041Z,0.73
2023-10-22T00:56:34.661Z,1.13
2023-10-22T00:59:01.512Z,0.82
2023-10-22T01:01:28.617Z,0.88
2023-10-22T01:03:55.297Z,0.88
2023-10-22T01:06:22.517Z,1.00
2023-10-22T01:08:49.075Z,0.90
2023-10-22T01:11:16.519Z,0.82
2023-10-22T01:13:43.026Z,0.80
2023-10-22T01:16:10.105Z,0.88
2023-10-22T01:18:37.589Z,0.90
2023-10-22T01:21:07.421Z,1.00
2023-10-22T01:23:40.304Z,0.80
2023-10-22T01:26:07.970Z,0.82
2023-10-22T01:28:35.599Z,0.80
2023-10-22T01:31:02.457Z,0.90
2023-10-22T01:33:29.097Z,1.00
2023-10-22T01:35:55.683Z,0.80
2023-10-22T01:38:22.541Z,1.15
2023-10-22T01:40:49.107Z,0.98
2023-10-22T01:43:15.608Z,1.10
2023-10-22T01:45:42.065Z,1.00
2023-10-22T01:48:09.329Z,1.05
2023-10-22T01:50:36.017Z,1.23
2023-10-22T01:53:02.956Z,0.98
2023-10-22T01:55:29.516Z,1.00
2023-10-22T01:57:56.135Z,1.00
2023-10-22T02:00:23.047Z,0.98
2023-10-22T02:02:50.055Z,1.08
2023-10-22T02:05:17.239Z,1.00
2023-10-22T02:07:43.912Z,0.85
2023-10-22T02:10:10.922Z,0.90
2023-10-22T02:12:38.164Z,0.90
2023-10-22T02:15:05.533Z,1.10
2023-10-22T02:17:32.216Z,1.15
2023-10-22T02:19:58.716Z,1.10
2023-10-22T02:22:25.257Z,1.10
2023-10-22T02:24:52.181Z,1.10
2023-10-22T02:27:18.653Z,1.13
2023-10-22T02:29:45.206Z,1.10
2023-10-22T02:32:11.705Z,1.10
2023-10-22T02:34:38.441Z,1.35
2023-10-22T02:37:05.321Z,1.10
2023-10-22T02:39:32.694Z,1.10
2023-10-22T02:41:59.209Z,1.13
2023-10-22T02:44:25.759Z,0.93
2023-10-22T02:46:52.199Z,0.98
2023-10-22T02:49:18.772Z,1.20
2023-10-22T02:51:45.764Z,1.05
2023-10-22T02:54:12.304Z,1.20
2023-10-22T02:56:40.445Z,1.23
2023-10-22T02:59:07.027Z,1.23
2023-10-22T03:01:34.239Z,1.45
2023-10-22T03:04:01.433Z,1.25
2023-10-22T03:06:28.074Z,1.65
2023-10-22T03:08:54.641Z,1.20
2023-10-22T03:11:21.129Z,1.20
2023-10-22T03:13:50.352Z,1.40
2023-10-22T03:16:17.321Z,1.50
2023-10-22T03:18:45.872Z,1.70
2023-10-22T03:21:12.861Z,1.55
2023-10-22T03:23:42.741Z,1.75
2023-10-22T03:26:12.799Z,1.60
2023-10-22T03:28:39.925Z,1.40
2023-10-22T03:31:06.688Z,1.20
2023-10-22T03:33:33.885Z,1.50
2023-10-22T03:36:01.850Z,1.50
2023-10-22T03:38:28.581Z,1.33
2023-10-22T03:41:03.447Z,2.00
2023-10-22T03:43:31.106Z,2.00
2023-10-22T03:45:58.412Z,2.28
2023-10-22T03:48:25.852Z,2.25
2023-10-22T03:50:52.690Z,2.10
2023-10-22T03:53:19.402Z,2.42
2023-10-22T03:55:46.437Z,2.50
2023-10-22T03:58:12.948Z,2.33
2023-10-22T04:00:39.900Z,2.50
2023-10-22T04:03:06.497Z,2.30
2023-10-22T04:05:33.390Z,2.47
2023-10-22T04:08:00.212Z,2.40
2023-10-22T04:10:26.805Z,2.60
2023-10-22T04:12:53.432Z,2.35
2023-10-22T04:15:20.113Z,2.63
2023-10-22T04:17:50.380Z,2.50
2023-10-22T04:20:17.508Z,2.47
2023-10-22T04:22:44.689Z,2.63
2023-10-22T04:25:12.528Z,2.70
2023-10-22T04:27:39.126Z,2.30
2023-10-22T04:30:06.421Z,2.70
2023-10-22T04:32:34.722Z,2.40
2023-10-22T04:35:01.542Z,2.28
2023-10-22T04:37:29.106Z,2.30
2023-10-22T04:40:00.129Z,2.33
2023-10-22T04:42:28.984Z,2.25
2023-10-22T04:44:56.239Z,2.40
2023-10-22T04:47:23.003Z,2.60
2023-10-22T04:49:54.401Z,2.60
2023-10-22T04:52:35.561Z,2.42
2023-10-22T04:55:02.619Z,2.30
2023-10-22T04:57:29.396Z,2.42
2023-10-22T04:59:56.544Z,2.58
2023-10-22T05:02:23.119Z,2.22
2023-10-22T05:04:53.401Z,2.55
2023-10-22T05:07:20.227Z,2.50
2023-10-22T05:09:46.833Z,2.20
2023-10-22T05:12:13.498Z,2.42
2023-10-22T05:14:40.217Z,2.33
2023-10-22T05:17:08.008Z,2.58
2023-10-22T05:19:35.561Z,2.42
2023-10-22T05:22:02.543Z,2.63
2023-10-22T05:24:29.047Z,2.88
2023-10-22T05:26:55.576Z,2.58
2023-10-22T05:29:22.111Z,2.42
2023-10-22T05:31:48.822Z,2.40
2023-10-22T05:34:15.298Z,2.72
2023-10-22T05:36:42.999Z,2.50
2023-10-22T05:39:09.580Z,2.20
2023-10-22T05:41:36.140Z,2.55
2023-10-22T05:44:04.356Z,2.47
2023-10-22T05:46:34.558Z,2.67
2023-10-22T05:49:04.725Z,2.60
2023-10-22T05:51:33.865Z,2.65
2023-10-22T05:54:00.620Z,2.45
2023-10-22T05:56:29.528Z,2.45
2023-10-22T05:58:56.030Z,2.45
2023-10-22T06:01:22.526Z,2.50
2023-10-22T06:03:49.839Z,2.25
2023-10-22T06:06:25.266Z,2.50
2023-10-22T06:08:51.740Z,2.50
2023-10-22T06:11:18.250Z,2.53
2023-10-22T06:13:44.727Z,2.50
2023-10-22T06:16:11.756Z,2.50
2023-10-22T06:18:38.935Z,2.47
2023-10-22T06:21:15.761Z,2.70
2023-10-22T06:23:43.095Z,2.53
2023-10-22T06:26:11.256Z,2.53
2023-10-22T06:28:38.751Z,2.40
2023-10-22T06:31:09.217Z,2.50
2023-10-22T06:33:37.050Z,2.50
2023-10-22T06:36:15.007Z,2.63
2023-10-22T06:38:42.615Z,2.40
2023-10-22T06:41:21.606Z,2.55
2023-10-22T06:43:48.516Z,2.72
2023-10-22T06:46:15.845Z,2.40
2023-10-22T06:48:43.772Z,2.75
2023-10-22T06:51:11.880Z,2.47
2023-10-22T06:53:39.825Z,2.55
2023-10-22T06:56:07.335Z,2.50
2023-10-22T06:58:34.005Z,2.30
2023-10-22T07:01:08.546Z,2.33
2023-10-22T07:03:36.416Z,2.75
2023-10-22T07:06:03.436Z,2.35
2023-10-22T07:08:30.858Z,2.78
2023-10-22T07:10:57.864Z,2.40
2023-10-22T07:13:25.176Z,2.00
2023-10-22T07:15:52.779Z,2.28
2023-10-22T07:18:19.636Z,2.40
2023-10-22T07:20:46.264Z,2.00
2023-10-22T07:23:12.882Z,1.70
2023-10-22T07:25:39.525Z,2.17
2023-10-22T07:28:06.726Z,1.80
2023-10-22T07:30:33.806Z,1.83
2023-10-22T07:33:00.423Z,1.92
2023-10-22T07:35:27.081Z,2.03
2023-10-22T07:37:53.734Z,1.67
2023-10-22T07:40:20.401Z,1.50
2023-10-22T07:42:46.990Z,1.73
2023-10-22T07:45:13.634Z,1.60
2023-10-22T07:47:40.275Z,1.42
2023-10-22T07:50:08.077Z,1.42
2023-10-22T07:52:38.122Z,1.83
2023-10-22T07:55:06.697Z,1.80
2023-10-22T07:57:33.539Z,1.60
2023-10-22T08:00:00.098Z,1.55
2023-10-22T08:02:26.650Z,1.60
2023-10-22T08:04:53.180Z,1.48
2023-10-22T08:07:20.159Z,1.30
2023-10-22T08:09:47.358Z,1.70
2023-10-22T08:12:14.670Z,1.40
2023-10-22T08:14:42.011Z,1.50
2023-10-22T08:17:08.485Z,1.80
2023-10-22T08:19:35.313Z,1.60
2023-10-22T08:22:01.849Z,1.40
2023-10-22T08:24:28.358Z,1.30
2023-10-22T08:26:54.990Z,1.20
2023-10-22T08:29:21.586Z,1.30
2023-10-22T08:31:48.086Z,1.40
2023-10-22T08:34:14.546Z,1.50
2023-10-22T08:36:43.208Z,1.50
2023-10-22T08:39:11.191Z,1.42
2023-10-22T08:44:06.686Z,1.30
2023-10-22T08:46:36.077Z,1.40
2023-10-22T08:49:06.903Z,1.20
2023-10-22T08:51:33.614Z,1.30
2023-10-22T08:54:02.133Z,1.10
2023-10-22T08:56:29.565Z,1.20
2023-10-22T08:59:02.046Z,1.05
2023-10-22T09:01:28.697Z,1.10
2023-10-22T09:03:58.164Z,1.20
2023-10-22T09:06:25.022Z,1.08
2023-10-22T09:08:52.861Z,1.00
2023-10-22T09:11:21.228Z,1.00
2023-10-22T09:13:48.456Z,1.10
2023-10-22T09:16:35.333Z,0.90
2023-10-22T09:19:03.289Z,0.90
2023-10-22T09:21:41.708Z,1.00
2023-10-22T09:24:08.678Z,1.10
2023-10-22T09:26:43.368Z,0.98
2023-10-22T09:31:36.957Z,1.00
2023-10-22T09:34:04.286Z,0.73
2023-10-22T09:36:30.857Z,1.00
2023-10-22T09:38:57.708Z,1.08
2023-10-22T09:41:25.726Z,1.00
2023-10-22T09:43:55.982Z,0.75
2023-10-22T09:46:26.118Z,0.82
2023-10-22T09:48:56.174Z,1.00
2023-10-22T09:51:24.218Z,1.08
2023-10-22T09:53:55.298Z,0.90
2023-10-22T09:56:22.928Z,0.88
2023-10-22T09:58:59.499Z,1.05
2023-10-22T10:01:28.172Z,0.85
2023-10-22T10:03:58.975Z,0.93
2023-10-22T10:06:26.788Z,1.02
2023-10-22T10:08:54.484Z,1.20
2023-10-22T10:11:22.296Z,1.00
2023-10-22T10:13:49.154Z,0.98
2023-10-22T10:16:15.592Z,0.90
2023-10-22T10:19:01.786Z,0.95
2023-10-22T10:21:39.329Z,1.00
2023-10-22T10:24:26.229Z,1.20
2023-10-22T10:27:13.982Z,1.08
2023-10-22T10:29:41.349Z,1.50
2023-10-22T10:32:17.054Z,0.80
2023-10-22T10:34:46.545Z,0.90
2023-10-22T10:37:22.057Z,1.00
2023-10-22T10:39:49.734Z,1.20
2023-10-22T10:42:37.707Z,1.20
2023-10-22T10:45:08.605Z,1.02
2023-10-22T10:47:43.173Z,1.00
2023-10-22T10:50:14.396Z,1.02
2023-10-22T10:52:43.605Z,0.85
2023-10-22T10:55:17.333Z,1.10
2023-10-22T10:57:49.372Z,1.25
2023-10-22T11:00:23.310Z,1.33
2023-10-22T11:02:51.821Z,1.08
2023-10-22T11:05:30.947Z,1.05
2023-10-22T11:07:57.860Z,0.95
2023-10-22T11:10:24.345Z,1.08
2023-10-22T11:12:54.740Z,1.05
2023-10-22T11:15:21.318Z,1.33
2023-10-22T11:17:47.830Z,1.00
2023-10-22T11:20:16.617Z,1.38
2023-10-22T11:22:43.219Z,1.00
2023-10-22T11:25:11.319Z,1.00
2023-10-22T11:27:39.841Z,0.95
2023-10-22T11:30:07.624Z,0.85
2023-10-22T11:32:37.293Z,1.13
2023-10-22T11:35:08.885Z,1.58
2023-10-22T11:37:40.351Z,1.00
2023-10-22T11:40:26.531Z,0.90
2023-10-22T11:42:54.049Z,1.05
2023-10-22T11:45:21.373Z,1.08
2023-10-22T11:47:48.126Z,1.00
2023-10-22T11:50:15.651Z,0.90
2023-10-22T11:52:55.177Z,1.10
2023-10-22T11:55:36.636Z,1.00
2023-10-22T11:58:16.645Z,1.02
2023-10-22T12:00:43.087Z,1.30
2023-10-22T12:03:09.742Z,1.00
2023-10-22T12:05:36.283Z,1.05
2023-10-22T12:08:02.779Z,1.10
2023-10-22T12:10:29.974Z,1.00
2023-10-22T12:12:56.850Z,1.40
2023-10-22T12:15:23.401Z,1.10
2023-10-22T12:17:49.973Z,0.80
2023-10-22T12:20:16.455Z,2.45
2023-10-22T12:22:42.934Z,1.40
2023-10-22T12:25:09.796Z,0.93
2023-10-22T12:27:37.544Z,1.48
2023-10-22T12:30:06.051Z,1.33
2023-10-22T12:32:32.617Z,1.20
2023-10-22T12:34:59.238Z,1.00
2023-10-22T12:37:25.732Z,1.02
2023-10-22T12:39:52.410Z,0.88
2023-10-22T12:42:18.896Z,1.00
2023-10-22T12:44:46.274Z,0.80
2023-10-22T12:47:16.760Z,0.82
2023-10-22T12:49:44.350Z,1.10
2023-10-22T12:52:12.046Z,0.85
2023-10-22T12:54:42.476Z,1.20
2023-10-22T12:57:10.217Z,0.80
2023-10-22T12:59:36.702Z,1.05
2023-10-22T13:02:04.926Z,1.13
2023-10-22T13:04:31.614Z,1.20
2023-10-22T13:06:59.879Z,0.95
2023-10-22T13:09:26.589Z,0.90
2023-10-22T13:11:54.609Z,0.93
2023-10-22T13:14:23.696Z,1.00
2023-10-22T13:16:50.492Z,1.13
2023-10-22T13:19:17.129Z,1.00
2023-10-22T13:21:44.352Z,1.25
2023-10-22T13:24:11.206Z,1.05
2023-10-22T13:26:37.750Z,0.95
2023-10-22T13:29:07.686Z,1.00
2023-10-22T13:31:35.105Z,1.00
2023-10-22T13:34:02.148Z,1.13
2023-10-22T13:36:28.721Z,0.90
2023-10-22T13:38:55.353Z,0.95
2023-10-22T13:41:21.860Z,1.15
2023-10-22T13:43:48.564Z,1.00
2023-10-22T13:46:15.173Z,0.80
2023-10-22T13:48:41.868Z,1.10
2023-10-22T13:51:08.552Z,0.93
2023-10-22T13:53:35.221Z,0.95
2023-10-22T13:56:01.752Z,1.10
2023-10-22T13:58:31.232Z,0.90
2023-10-22T14:00:57.814Z,0.90
2023-10-22T14:03:24.496Z,0.82
2023-10-22T14:05:52.549Z,1.20
2023-10-22T14:08:22.336Z,1.05
2023-10-22T14:10:49.825Z,1.10
2023-10-22T14:13:17.973Z,1.10
2023-10-22T14:15:46.171Z,1.00
2023-10-22T14:18:12.986Z,1.00
2023-10-22T14:20:39.686Z,0.77
2023-10-22T14:23:06.202Z,1.30
2023-10-22T14:25:32.830Z,1.00
2023-10-22T14:27:59.359Z,1.00
2023-10-22T14:30:25.971Z,1.35
2023-10-22T14:32:52.531Z,0.90
2023-10-22T14:35:19.088Z,1.05
2023-10-22T14:37:45.543Z,0.93
2023-10-22T14:40:12.128Z,0.90
2023-10-22T14:42:38.717Z,0.70
2023-10-22T14:45:07.383Z,1.40
2023-10-22T14:47:33.943Z,1.15
2023-10-22T14:50:00.643Z,1.27
2023-10-22T14:52:27.236Z,0.90
2023-10-22T14:54:53.760Z,0.93
2023-10-22T14:57:20.745Z,0.75
2023-10-22T14:59:48.392Z,1.05
2023-10-22T15:02:15.212Z,0.90
2023-10-22T15:04:41.858Z,0.90
2023-10-22T15:07:08.641Z,1.00
2023-10-22T15:09:37.692Z,1.00
2023-10-22T15:12:04.834Z,0.82
2023-10-22T15:14:31.375Z,0.85
2023-10-22T15:16:58.322Z,1.10
2023-10-22T15:19:24.872Z,1.30
2023-10-22T15:21:51.337Z,0.88
2023-10-22T15:24:17.860Z,1.30
2023-10-22T15:26:44.645Z,0.90
2023-10-22T15:29:15.584Z,1.08
2023-10-22T15:31:45.130Z,0.88
2023-10-22T15:34:12.338Z,1.00
2023-10-22T15:36:39.842Z,0.85
2023-10-22T15:45:27.126Z,1.17
2023-10-22T15:47:55.049Z,1.10
2023-10-22T15:50:23.656Z,1.10
2023-10-22T15:52:51.765Z,1.13
2023-10-22T15:55:19.253Z,1.00
2023-10-22T15:57:52.582Z,1.02
2023-10-22T16:00:23.175Z,1.00
2023-10-22T16:02:50.481Z,1.13
2023-10-22T16:05:18.296Z,1.10
2023-10-22T16:07:45.236Z,1.45
2023-10-22T16:10:12.010Z,1.20
2023-10-22T16:12:39.738Z,0.88
2023-10-22T16:15:07.836Z,1.00
2023-10-22T16:17:41.962Z,1.38
2023-10-22T16:20:10.278Z,1.10
2023-10-22T16:22:37.219Z,1.60
2023-10-22T16:27:48.719Z,1.88
2023-10-22T16:30:15.484Z,2.72
2023-10-22T16:32:42.168Z,2.58
2023-10-22T16:35:09.227Z,2.95
2023-10-22T16:37:36.191Z,3.10
2023-10-22T16:40:02.679Z,3.38
2023-10-22T16:42:29.920Z,3.13
2023-10-22T16:44:56.549Z,3.38
2023-10-22T16:47:23.139Z,3.15
2023-10-22T16:49:50.233Z,3.78
2023-10-22T16:52:16.763Z,3.45
2023-10-22T16:54:43.340Z,3.10
2023-10-22T16:57:10.040Z,1.90
2023-10-22T16:59:36.712Z,1.80
2023-10-22T17:02:03.674Z,1.65
2023-10-22T17:04:30.384Z,1.85
2023-10-22T17:06:56.960Z,2.20
2023-10-22T17:09:23.517Z,2.30
2023-10-22T17:11:50.062Z,2.28
2023-10-22T17:14:16.608Z,1.88
2023-10-22T17:16:43.187Z,2.70
2023-10-22T17:19:09.867Z,2.10
2023-10-22T17:21:38.822Z,4.57
2023-10-22T17:24:05.831Z,4.22
2023-10-22T17:26:34.852Z,2.08
2023-10-22T17:29:01.506Z,2.92
2023-10-22T17:31:28.331Z,2.65
2023-10-22T17:34:04.938Z,3.90
2023-10-22T17:36:33.304Z,3.05
2023-10-22T17:39:00.055Z,2.78
2023-10-22T17:41:26.632Z,3.30
2023-10-22T17:43:53.179Z,2.45
2023-10-22T17:46:19.746Z,2.33
2023-10-22T17:48:47.539Z,2.97
2023-10-22T17:51:14.622Z,2.72
2023-10-22T17:53:41.271Z,2.10
2023-10-22T17:56:10.386Z,1.90
2023-10-22T17:58:38.615Z,2.20
2023-10-22T18:01:06.030Z,1.85
2023-10-22T18:03:35.489Z,2.03
2023-10-22T18:06:03.407Z,1.55
2023-10-22T18:08:30.583Z,1.60
2023-10-22T18:10:58.461Z,1.65
2023-10-22T18:13:29.449Z,1.77
2023-10-22T18:16:00.251Z,1.95
2023-10-22T18:18:27.353Z,2.00
2023-10-22T18:20:54.405Z,1.90
2023-10-22T18:23:22.054Z,2.22
2023-10-22T18:26:05.491Z,1.70
2023-10-22T18:28:32.841Z,1.63
2023-10-22T18:30:59.618Z,2.28
2023-10-22T18:33:26.290Z,1.77
2023-10-22T18:35:53.108Z,2.00
2023-10-22T18:38:19.646Z,2.10
2023-10-22T18:40:51.137Z,2.67
2023-10-22T18:43:17.893Z,2.40
2023-10-22T18:45:44.946Z,2.45
2023-10-22T18:48:13.266Z,2.33
2023-10-22T18:50:40.320Z,2.72
2023-10-22T18:53:06.806Z,2.50
2023-10-22T18:55:33.418Z,2.58
2023-10-22T18:57:59.897Z,2.20
2023-10-22T19:00:26.525Z,2.17
2023-10-22T19:02:53.183Z,2.60
2023-10-22T19:05:19.823Z,2.33
2023-10-22T19:07:46.676Z,2.22
2023-10-22T19:10:14.723Z,2.03
2023-10-22T19:12:42.978Z,2.03
2023-10-22T19:15:13.608Z,2.20
2023-10-22T19:17:42.123Z,1.63
2023-10-22T19:22:36.462Z,1.63
2023-10-22T19:25:04.597Z,1.73
2023-10-22T19:27:37.206Z,1.80
2023-10-22T19:30:05.765Z,1.55
2023-10-22T19:32:32.681Z,1.92
2023-10-22T19:34:59.302Z,2.00
2023-10-22T19:37:26.677Z,1.67
2023-10-22T19:39:56.121Z,1.50
2023-10-22T19:42:23.173Z,1.60
2023-10-22T19:44:49.651Z,2.08
2023-10-22T19:47:16.412Z,2.10
2023-10-22T19:49:42.902Z,2.40
2023-10-22T19:52:09.334Z,3.50
2023-10-22T19:54:35.944Z,3.10
2023-10-22T19:57:05.759Z,3.30
2023-10-22T19:59:33.391Z,2.92
2023-10-22T20:02:14.813Z,2.85
2023-10-22T20:04:44.679Z,3.00
2023-10-22T20:07:11.433Z,2.60
2023-10-22T20:09:38.385Z,3.28
2023-10-22T20:12:06.816Z,3.25
2023-10-22T20:14:34.285Z,3.33
2023-10-22T20:17:02.564Z,3.20
2023-10-22T20:19:29.777Z,3.20
2023-10-22T20:21:56.372Z,3.05
2023-10-22T20:24:23.791Z,2.60
2023-10-22T20:26:50.352Z,2.80
2023-10-22T20:29:17.437Z,2.25
2023-10-22T20:31:44.110Z,2.20
2023-10-22T20:34:11.316Z,2.25
2023-10-22T20:36:38.654Z,2.00
2023-10-22T20:39:09.323Z,1.95
2023-10-22T20:41:35.878Z,2.10
2023-10-22T20:44:02.472Z,2.08
2023-10-22T20:46:29.441Z,2.20
2023-10-22T20:48:56.543Z,1.90
2023-10-22T20:51:23.217Z,2.08
2023-10-22T20:53:49.935Z,2.00
2023-10-22T20:56:16.619Z,1.80
2023-10-22T20:58:43.535Z,1.58
2023-10-22T21:01:22.252Z,1.52
2023-10-22T21:03:49.364Z,1.45
2023-10-22T21:06:16.579Z,2.00
2023-10-22T21:08:43.734Z,1.73
2023-10-22T21:11:11.674Z,2.13
2023-10-22T21:13:38.364Z,1.90
2023-10-22T21:16:05.095Z,1.90
2023-10-22T21:18:32.097Z,1.90
2023-10-22T21:20:59.390Z,1.92
2023-10-22T21:23:27.013Z,1.80
2023-10-22T21:25:54.282Z,1.75
2023-10-22T21:28:21.232Z,1.60
2023-10-22T21:30:48.783Z,1.63
2023-10-22T21:33:17.967Z,1.88
2023-10-22T21:35:45.864Z,1.92
2023-10-22T21:38:12.940Z,1.85
2023-10-22T21:40:39.462Z,2.00
2023-10-22T21:43:06.105Z,1.90
2023-10-22T21:45:32.942Z,2.10
2023-10-22T21:47:59.600Z,1.90
2023-10-22T21:50:26.115Z,1.88
2023-10-22T21:52:52.703Z,1.70
2023-10-22T21:55:22.289Z,2.00
2023-10-22T21:57:52.032Z,1.73
2023-10-22T22:00:21.935Z,1.58
2023-10-22T22:02:48.694Z,1.63
2023-10-22T22:05:15.476Z,1.50
2023-10-22T22:07:41.960Z,1.67
2023-10-22T22:10:08.979Z,1.42
2023-10-22T22:12:36.377Z,1.80
2023-10-22T22:15:03.875Z,1.92
2023-10-22T22:17:30.535Z,1.73
2023-10-22T22:19:57.101Z,1.50
2023-10-22T22:22:23.753Z,1.50
2023-10-22T22:24:50.519Z,1.30
2023-10-22T22:27:17.291Z,1.48
2023-10-22T22:29:43.821Z,1.70
2023-10-22T22:32:10.381Z,1.50
2023-10-22T22:34:37.028Z,1.77
2023-10-22T22:37:03.915Z,1.75
2023-10-22T22:39:30.472Z,1.80
2023-10-22T22:41:57.021Z,1.50
2023-10-22T22:44:23.476Z,1.40
2023-10-22T22:46:49.969Z,1.58
2023-10-22T22:49:16.945Z,1.30
2023-10-22T22:51:44.610Z,1.85
2023-10-22T22:54:11.346Z,1.80
2023-10-22T22:56:37.916Z,2.08
2023-10-22T22:59:04.630Z,1.80
2023-10-22T23:01:31.185Z,2.40
2023-10-22T23:03:57.704Z,2.33
2023-10-22T23:06:24.240Z,2.05
2023-10-22T23:08:50.827Z,2.33
2023-10-22T23:11:17.369Z,2.30
2023-10-22T23:13:43.906Z,2.72
2023-10-22T23:16:10.690Z,2.50
2023-10-22T23:18:37.460Z,2.40
2023-10-22T23:21:04.139Z,2.35
2023-10-22T23:23:30.632Z,2.28
2023-10-22T23:25:57.217Z,2.63
2023-10-22T23:28:24.159Z,2.45
2023-10-22T23:30:51.777Z,3.05
2023-10-22T23:33:21.225Z,2.53
2023-10-22T23:35:47.878Z,2.78
2023-10-22T23:38:14.396Z,2.80
2023-10-22T23:40:41.134Z,2.90
2023-10-22T23:43:07.700Z,2.83
2023-10-22T23:45:34.212Z,3.10
2023-10-22T23:48:00.769Z,2.63
2023-10-22T23:50:27.252Z,2.40
2023-10-22T23:52:53.744Z,2.55
2023-10-22T23:55:20.545Z,2.65
2023-10-22T23:57:47.054Z,2.50
